Time;durP1;ratioP1;P1;durP2;ratioP2;P2;SDS_P1;SDS_P2;PMS_P1;PMS_P2;Temp;Humidity;BMP_temperature;BMP_pressure;BME280_temperature;BME280_humidity;BME280_pressure;Samples;Min_cycle;Max_cycle;Signal;HPM_P1;HPM_P2
2023/11/08 00:01:33;;;;;;;5.03;1.73;;;;;;;7.27;100.00;101095.97;5110257;28;20035;-34
2023/11/08 00:03:59;;;;;;;3.60;1.67;;;;;;;7.27;100.00;101095.97;5110754;28;20052;-35
2023/11/08 00:06:24;;;;;;;4.70;1.50;;;;;;;7.18;100.00;101086.41;5110488;28;20380;-34
2023/11/08 00:08:51;;;;;;;4.37;1.50;;;;;;;7.25;100.00;101103.38;5099596;28;20024;-34
2023/11/08 00:11:17;;;;;;;4.32;1.60;;;;;;;7.20;100.00;101097.78;5096575;28;20028;-34
2023/11/08 00:13:44;;;;;;;5.25;1.70;;;;;;;7.21;100.00;101099.44;5096465;28;20028;-34
2023/11/08 00:16:09;;;;;;;3.95;1.50;;;;;;;7.18;100.00;101097.16;5096388;28;20082;-34
2023/11/08 00:18:34;;;;;;;6.57;1.93;;;;;;;7.22;100.00;101104.63;5096456;28;20074;-34
2023/11/08 00:21:00;;;;;;;4.67;1.57;;;;;;;7.15;100.00;101093.00;5096940;28;20399;-35
2023/11/08 00:23:26;;;;;;;3.38;1.48;;;;;;;7.20;100.00;101095.09;5096322;28;20119;-34
2023/11/08 00:25:53;;;;;;;3.17;1.30;;;;;;;7.21;100.00;101100.25;5096298;28;20032;-34
2023/11/08 00:28:18;;;;;;;4.15;1.45;;;;;;;7.19;100.00;101093.44;5096113;28;20028;-34
2023/11/08 00:30:43;;;;;;;6.32;2.10;;;;;;;7.14;100.00;101091.34;5097040;28;20039;-34
2023/11/08 00:33:09;;;;;;;5.07;1.42;;;;;;;7.19;100.00;101098.81;5096094;28;20042;-34
2023/11/08 00:35:34;;;;;;;5.83;1.43;;;;;;;7.19;100.00;101102.34;5096097;28;20028;-34
2023/11/08 00:38:00;;;;;;;5.07;1.55;;;;;;;7.14;100.00;101103.97;5095976;28;20032;-34
2023/11/08 00:40:25;;;;;;;2.73;1.50;;;;;;;7.11;100.00;101104.38;5095952;28;20031;-35
2023/11/08 00:42:51;;;;;;;4.30;1.80;;;;;;;7.14;100.00;101114.75;5095947;28;20035;-35
2023/11/08 00:45:16;;;;;;;5.22;1.60;;;;;;;7.07;100.00;101095.88;5096478;28;20034;-34
2023/11/08 00:47:43;;;;;;;4.03;1.60;;;;;;;7.11;100.00;101107.88;5095824;28;20032;-34
2023/11/08 00:50:09;;;;;;;2.67;1.52;;;;;;;7.04;100.00;101101.66;5096318;28;20614;-34
2023/11/08 00:52:36;;;;;;;3.22;1.63;;;;;;;7.09;100.00;101119.91;5096303;28;20032;-34
2023/11/08 00:55:05;;;;;;;4.10;2.00;;;;;;;7.09;100.00;101119.91;5095993;28;20039;-34
2023/11/08 00:57:31;;;;;;;4.30;1.70;;;;;;;7.04;100.00;101112.44;5095838;28;20048;-35
2023/11/08 00:59:56;;;;;;;4.55;1.52;;;;;;;7.01;100.00;101107.44;5096174;28;20024;-34
2023/11/08 01:02:22;;;;;;;4.22;1.70;;;;;;;7.03;100.00;101115.28;5095858;28;20052;-34
2023/11/08 01:04:47;;;;;;;3.30;1.70;;;;;;;7.00;100.00;101124.63;5095811;28;20111;-34
2023/11/08 01:07:13;;;;;;;3.45;1.60;;;;;;;6.91;100.00;101102.44;5096232;28;20266;-34
2023/11/08 01:09:38;;;;;;;5.33;2.17;;;;;;;6.97;100.00;101116.94;5095711;28;20468;-34
2023/11/08 01:12:05;;;;;;;6.73;1.63;;;;;;;6.99;100.00;101122.13;5095204;28;20024;-34
2023/11/08 01:14:32;;;;;;;4.32;1.33;;;;;;;6.97;100.00;101128.50;5095861;28;20055;-34
2023/11/08 01:16:57;;;;;;;;;;;;;;;7.03;100.00;101131.44;5096216;28;20392;-35
2023/11/08 01:19:25;;;;;;;6.38;1.70;;;;;;;6.91;100.00;101125.81;5094198;28;19972;-35
2023/11/08 01:21:50;;;;;;;6.47;2.33;;;;;;;6.94;100.00;101139.69;5095864;28;20024;-34
2023/11/08 01:24:16;;;;;;;5.45;1.85;;;;;;;6.92;100.00;101143.59;5095085;28;20077;-34
2023/11/08 01:26:42;;;;;;;3.75;1.55;;;;;;;6.91;100.00;101142.75;5095364;28;20035;-34
2023/11/08 01:29:07;;;;;;;5.80;1.50;;;;;;;6.81;100.00;101120.78;5095000;28;20028;-34
2023/11/08 01:31:32;;;;;;;3.78;1.95;;;;;;;6.86;100.00;101139.84;5095603;28;20440;-35
2023/11/08 01:33:58;;;;;;;4.37;1.70;;;;;;;6.70;100.00;101107.94;5094968;28;20024;-34
2023/11/08 01:36:26;;;;;;;4.55;1.70;;;;;;;6.88;100.00;101131.56;5095658;28;20032;-34
2023/11/08 01:38:52;;;;;;;3.95;1.95;;;;;;;6.85;100.00;101137.38;5094772;28;20035;-35
2023/11/08 01:41:19;;;;;;;3.95;2.00;;;;;;;6.81;100.00;101123.50;5094783;28;20029;-35
2023/11/08 01:43:45;;;;;;;4.57;1.73;;;;;;;6.82;100.00;101129.69;5094414;28;20533;-34
2023/11/08 01:46:18;;;;;;;4.07;1.88;;;;;;;6.89;100.00;101141.31;5095280;28;20066;-34
2023/11/08 01:48:44;;;;;;;6.00;1.95;;;;;;;6.91;100.00;101148.16;5094920;28;20024;-34
2023/11/08 01:51:09;;;;;;;3.35;1.48;;;;;;;6.94;100.00;101142.38;5095209;28;20024;-35
2023/11/08 01:53:40;;;;;;;4.55;1.77;;;;;;;6.89;100.00;101134.09;5094569;28;20043;-34
2023/11/08 01:56:12;;;;;;;4.85;1.58;;;;;;;6.89;100.00;101136.78;5094251;28;20128;-35
2023/11/08 01:58:38;;;;;;;4.20;1.48;;;;;;;6.92;100.00;101135.53;5094725;28;20036;-34
2023/11/08 02:01:13;;;;;;;4.90;1.67;;;;;;;6.92;100.00;101143.59;5095273;28;20044;-34
2023/11/08 02:03:40;;;;;;;5.38;1.70;;;;;;;6.90;100.00;101143.81;5094406;28;20020;-34
2023/11/08 02:06:13;;;;;;;3.50;1.55;;;;;;;6.88;100.00;101145.88;5094677;28;20403;-34
2023/11/08 02:08:39;;;;;;;4.07;1.77;;;;;;;6.79;100.00;101139.00;5094272;28;20077;-34
2023/11/08 02:11:05;;;;;;;5.43;1.67;;;;;;;6.87;100.00;101144.19;5094375;28;20122;-34
2023/11/08 02:13:33;;;;;;;4.50;1.70;;;;;;;6.86;100.00;101150.59;5094275;28;20495;-34
2023/11/08 02:15:59;;;;;;;4.45;1.63;;;;;;;6.84;100.00;101143.78;5094159;28;20429;-34
2023/11/08 02:18:24;;;;;;;6.28;2.05;;;;;;;6.85;100.00;101150.81;5093886;28;20032;-35
2023/11/08 02:20:49;;;;;;;4.33;1.57;;;;;;;6.78;100.00;101133.81;5094397;28;20024;-34
2023/11/08 02:23:16;;;;;;;5.82;2.08;;;;;;;6.67;100.00;101119.06;5094862;28;20281;-34
2023/11/08 02:25:43;;;;;;;5.03;1.67;;;;;;;6.87;100.00;101157.63;5094004;28;20035;-34
2023/11/08 02:28:08;;;;;;;4.32;1.80;;;;;;;6.82;100.00;101154.72;5093963;28;20043;-34
2023/11/08 02:30:34;;;;;;;5.05;1.58;;;;;;;6.83;100.00;101158.22;5094596;28;20465;-34
2023/11/08 02:32:59;;;;;;;6.68;1.70;;;;;;;6.84;100.00;101151.84;5093664;28;20020;-34
2023/11/08 02:35:25;;;;;;;6.07;1.70;;;;;;;6.78;100.00;101145.38;5092768;28;20074;-34
2023/11/08 02:37:51;;;;;;;3.17;1.48;;;;;;;6.83;100.00;101142.94;5093789;28;20321;-34
2023/11/08 02:40:16;;;;;;;5.72;1.77;;;;;;;6.82;100.00;101143.97;5093812;28;20094;-34
2023/11/08 02:42:44;;;;;;;3.63;1.60;;;;;;;6.80;100.00;101146.03;5093818;28;20070;-34
2023/11/08 02:45:09;;;;;;;4.03;1.42;;;;;;;6.80;100.00;101146.03;5094041;28;20261;-34
2023/11/08 02:47:35;;;;;;;6.95;2.17;;;;;;;6.75;100.00;101143.09;5093664;28;20028;-34
2023/11/08 02:50:00;;;;;;;5.38;1.70;;;;;;;6.75;100.00;101147.66;5093739;28;20040;-34
2023/11/08 02:52:26;;;;;;;8.15;2.13;;;;;;;6.73;100.00;101155.91;5093987;28;20036;-34
2023/11/08 02:54:52;;;;;;;4.70;1.60;;;;;;;6.72;100.00;101147.00;5093822;28;20070;-34
2023/11/08 02:57:18;;;;;;;3.90;1.60;;;;;;;6.67;100.00;101145.94;5094558;28;20052;-35
2023/11/08 02:59:45;;;;;;;4.53;1.67;;;;;;;6.71;100.00;101160.66;5093688;28;20461;-34
2023/11/08 03:02:10;;;;;;;3.63;1.55;;;;;;;6.69;100.00;101166.22;5093924;28;20035;-34
2023/11/08 03:04:37;;;;;;;4.10;1.33;;;;;;;6.70;100.00;101164.38;5093334;28;20391;-34
2023/11/08 03:07:04;;;;;;;5.18;1.40;;;;;;;6.44;100.00;101116.66;5094714;28;20039;-35
2023/11/08 03:09:30;;;;;;;4.13;1.40;;;;;;;6.71;100.00;101155.28;5093478;28;20035;-34
2023/11/08 03:11:57;;;;;;;;;;;;;;;6.76;100.00;101158.19;5093942;28;20032;-35
2023/11/08 03:14:24;;;;;;;5.60;2.00;;;;;;;6.74;100.00;101162.97;5093432;28;20268;-34
2023/11/08 03:16:49;;;;;;;5.50;1.52;;;;;;;6.72;100.00;101168.50;5094263;28;20095;-34
2023/11/08 03:19:14;;;;;;;5.90;1.37;;;;;;;6.66;100.00;101147.81;5093503;28;20120;-34
2023/11/08 03:21:44;;;;;;;6.40;1.60;;;;;;;6.71;100.00;101149.91;5093569;28;20055;-34
2023/11/08 03:24:09;;;;;;;3.38;1.63;;;;;;;6.50;100.00;101125.81;5093309;28;20035;-34
2023/11/08 03:26:35;;;;;;;6.60;1.58;;;;;;;6.69;100.00;101163.53;5093384;28;20040;-35
2023/11/08 03:29:00;;;;;;;4.40;1.93;;;;;;;6.44;100.00;101132.78;5094219;28;20024;-35
2023/11/08 03:31:26;;;;;;;4.50;1.70;;;;;;;6.67;100.00;101154.00;5094192;28;20020;-34
2023/11/08 03:33:51;;;;;;;;;;;;;;;6.72;100.00;101162.31;5093697;28;20028;-34
2023/11/08 03:36:17;;;;;;;4.83;1.43;;;;;;;6.66;100.00;101157.72;5093302;28;20023;-34
2023/11/08 03:38:42;;;;;;;4.93;1.77;;;;;;;6.66;100.00;101146.97;5093540;28;20270;-34
2023/11/08 03:41:07;;;;;;;5.40;1.40;;;;;;;6.63;100.00;101148.19;5093566;28;20458;-34
2023/11/08 03:43:33;;;;;;;7.63;1.63;;;;;;;6.64;100.00;101154.41;5095433;28;20444;-34
2023/11/08 03:45:58;;;;;;;2.87;1.50;;;;;;;6.52;100.00;101139.84;5097054;28;20043;-34
2023/11/08 03:48:23;;;;;;;3.30;1.40;;;;;;;6.62;100.00;101156.47;5097041;28;20077;-34
2023/11/08 03:50:49;;;;;;;4.60;1.57;;;;;;;6.60;100.00;101156.66;5096691;28;20316;-34
2023/11/08 03:53:14;;;;;;;4.13;1.40;;;;;;;6.58;100.00;101156.00;5097002;28;20182;-34
2023/11/08 03:55:39;;;;;;;5.00;1.47;;;;;;;6.58;100.00;101160.56;5096774;28;20035;-34
2023/11/08 03:58:05;;;;;;;3.30;1.30;;;;;;;6.51;100.00;101148.94;5097266;28;20020;-34
2023/11/08 04:00:30;;;;;;;4.77;1.80;;;;;;;6.59;100.00;101156.88;5097368;28;20414;-34
2023/11/08 04:02:57;;;;;;;5.10;1.70;;;;;;;6.56;100.00;101152.72;5096683;28;20752;-35
2023/11/08 04:05:23;;;;;;;4.60;1.45;;;;;;;6.48;100.00;101149.34;5096741;28;20029;-34
2023/11/08 04:07:48;;;;;;;6.35;1.42;;;;;;;6.54;100.00;101160.16;5096559;28;20035;-34
2023/11/08 04:10:14;;;;;;;5.27;1.70;;;;;;;6.50;100.00;101160.72;5096897;28;20108;-34
2023/11/08 04:12:40;;;;;;;3.80;1.33;;;;;;;6.50;100.00;101155.34;5096458;28;20020;-35
2023/11/08 04:15:07;;;;;;;3.43;1.13;;;;;;;6.41;100.00;101149.31;5096834;28;20028;-34
2023/11/08 04:17:33;;;;;;;3.35;1.10;;;;;;;6.50;100.00;101161.56;5096383;28;20028;-34
2023/11/08 04:19:58;;;;;;;4.17;1.50;;;;;;;6.50;100.00;101152.69;5096987;28;20115;-34
2023/11/08 04:22:23;;;;;;;5.43;1.70;;;;;;;6.51;100.00;101165.06;5096482;28;20706;-34
2023/11/08 04:24:49;;;;;;;4.00;1.50;;;;;;;6.50;100.00;101164.25;5096122;28;20551;-34
2023/11/08 04:27:14;;;;;;;3.17;1.23;;;;;;;6.47;100.00;101164.63;5097194;28;20198;-34
2023/11/08 04:29:39;;;;;;;4.90;1.50;;;;;;;6.49;100.00;101170.66;5096981;28;20058;-34
2023/11/08 04:32:05;;;;;;;4.47;1.20;;;;;;;6.51;100.00;101173.13;5096795;28;20032;-35
2023/11/08 04:34:31;;;;;;;7.75;1.70;;;;;;;6.44;100.00;101155.13;5096138;28;20024;-34
2023/11/08 04:36:57;;;;;;;4.13;1.30;;;;;;;6.44;100.00;101165.88;5096253;28;20110;-35
2023/11/08 04:39:23;;;;;;;5.03;1.20;;;;;;;6.49;100.00;101175.16;5096094;28;20320;-34
2023/11/08 04:41:49;;;;;;;3.67;0.98;;;;;;;6.53;100.00;101176.44;5095969;28;20077;-34
2023/11/08 04:44:14;;;;;;;5.78;1.23;;;;;;;6.51;100.00;101181.19;5096176;28;20028;-34
2023/11/08 04:46:41;;;;;;;6.57;1.37;;;;;;;6.47;100.00;101180.75;5096278;28;20506;-34
2023/11/08 04:49:07;;;;;;;3.28;1.27;;;;;;;6.56;100.00;101184.13;5095778;28;20276;-35
2023/11/08 04:51:32;;;;;;;6.28;2.20;;;;;;;6.40;100.00;101161.09;5095530;28;20032;-34
2023/11/08 04:53:57;;;;;;;7.63;1.83;;;;;;;6.53;100.00;101173.75;5095666;28;20028;-34
2023/11/08 04:56:23;;;;;;;3.57;1.40;;;;;;;6.53;100.00;101176.44;5096307;28;20055;-34
2023/11/08 04:58:48;;;;;;;4.87;1.53;;;;;;;6.60;100.00;101180.03;5095404;28;20024;-34
2023/11/08 05:01:15;;;;;;;4.30;1.40;;;;;;;6.60;100.00;101183.53;5095436;28;20103;-34
2023/11/08 05:03:40;;;;;;;;;;;;;;;6.65;100.00;101181.09;5095661;28;20031;-34
2023/11/08 05:06:05;;;;;;;4.43;1.30;;;;;;;6.60;100.00;101180.84;5095239;28;19908;-34
2023/11/08 05:08:31;;;;;;;5.18;1.50;;;;;;;6.53;100.00;101171.06;5096015;28;20274;-34
2023/11/08 05:10:56;;;;;;;4.53;1.35;;;;;;;6.56;100.00;101181.44;5096274;28;20031;-35
2023/11/08 05:13:24;;;;;;;4.13;1.50;;;;;;;6.59;100.00;101186.44;5095897;28;20082;-35
2023/11/08 05:15:49;;;;;;;5.43;1.70;;;;;;;6.48;100.00;101174.34;5096055;28;20028;-35
2023/11/08 05:18:15;;;;;;;4.10;1.33;;;;;;;6.54;100.00;101180.78;5095296;28;20093;-34
2023/11/08 05:20:40;;;;;;;3.53;1.20;;;;;;;6.53;100.00;101190.69;5095539;28;20024;-34
2023/11/08 05:23:05;;;;;;;3.85;1.40;;;;;;;6.54;100.00;101187.00;5094945;28;20024;-34
2023/11/08 05:25:31;;;;;;;3.10;1.10;;;;;;;6.55;100.00;101193.22;5094977;28;20498;-34
2023/11/08 05:27:58;;;;;;;6.33;1.47;;;;;;;6.53;100.00;101184.50;5095076;28;20032;-34
2023/11/08 05:30:24;;;;;;;4.20;1.20;;;;;;;6.52;100.00;101188.22;5094761;28;20024;-35
2023/11/08 05:32:49;;;;;;;5.75;1.77;;;;;;;6.46;100.00;101168.34;5095328;28;20030;-34
2023/11/08 05:35:15;;;;;;;3.37;1.60;;;;;;;6.53;100.00;101195.25;5094721;28;20396;-34
2023/11/08 05:37:43;;;;;;;4.18;1.38;;;;;;;6.54;100.00;101191.53;5094783;28;20111;-34
2023/11/08 05:40:12;;;;;;;4.60;1.40;;;;;;;6.49;100.00;101183.22;5095445;28;20395;-34
2023/11/08 05:42:41;;;;;;;4.57;1.50;;;;;;;6.53;100.00;101190.69;5094737;28;20043;-34
2023/11/08 05:45:07;;;;;;;4.05;1.55;;;;;;;6.54;100.00;101194.22;5095108;28;20020;-35
2023/11/08 05:47:33;;;;;;;4.07;1.30;;;;;;;6.53;100.00;101192.56;5094681;28;20031;-34
2023/11/08 05:50:00;;;;;;;3.25;1.25;;;;;;;6.52;100.00;101194.41;5094512;28;20032;-34
2023/11/08 05:52:25;;;;;;;4.07;1.40;;;;;;;6.48;100.00;101187.78;5095472;28;20028;-34
2023/11/08 05:54:51;;;;;;;3.50;1.20;;;;;;;6.50;100.00;101190.28;5094548;28;20039;-34
2023/11/08 05:57:17;;;;;;;;;;;;;;;6.54;100.00;101187.00;5095935;28;20048;-34
2023/11/08 05:59:43;;;;;;;4.18;1.48;;;;;;;6.40;100.00;101179.88;5095036;28;19911;-35
2023/11/08 06:02:09;;;;;;;5.80;1.67;;;;;;;6.45;100.00;101183.63;5094725;28;20024;-34
2023/11/08 06:04:34;;;;;;;2.70;1.00;;;;;;;6.40;100.00;101187.94;5094418;28;20024;-35
2023/11/08 06:07:00;;;;;;;5.75;1.90;;;;;;;6.43;100.00;101190.22;5093599;28;20032;-34
2023/11/08 06:09:25;;;;;;;4.50;1.48;;;;;;;6.38;100.00;101190.81;5094295;28;20032;-34
2023/11/08 06:11:51;;;;;;;6.03;1.83;;;;;;;6.35;100.00;101188.53;5094597;28;20028;-34
2023/11/08 06:14:16;;;;;;;4.50;1.40;;;;;;;6.33;100.00;101185.19;5093903;28;20020;-34
2023/11/08 06:16:42;;;;;;;3.22;1.40;;;;;;;6.25;100.00;101169.22;5094433;28;20107;-34
2023/11/08 06:19:08;;;;;;;8.57;1.52;;;;;;;6.22;100.00;101179.53;5094122;28;20020;-34
2023/11/08 06:21:34;;;;;;;5.22;1.20;;;;;;;6.12;100.00;101174.47;5093802;28;20507;-35
2023/11/08 06:23:59;;;;;;;5.15;1.98;;;;;;;6.27;100.00;101195.88;5093808;28;20036;-34
2023/11/08 06:26:25;;;;;;;5.00;1.60;;;;;;;6.24;100.00;101196.25;5093774;28;20075;-34
2023/11/08 06:28:52;;;;;;;6.68;1.58;;;;;;;6.16;100.00;101190.03;5094040;28;20088;-34
2023/11/08 06:31:20;;;;;;;4.20;1.20;;;;;;;6.19;100.00;101205.72;5094208;28;20024;-35
2023/11/08 06:33:46;;;;;;;4.47;1.40;;;;;;;6.16;100.00;101190.03;5093540;28;20055;-35
2023/11/08 06:36:13;;;;;;;2.50;1.15;;;;;;;6.17;100.00;101199.72;5093846;28;20109;-35
2023/11/08 06:38:39;;;;;;;5.05;1.92;;;;;;;6.16;100.00;101202.63;5093568;28;20025;-35
2023/11/08 06:41:04;;;;;;;4.18;1.40;;;;;;;6.15;100.00;101209.84;5093855;28;20461;-35
2023/11/08 06:43:29;;;;;;;6.07;1.50;;;;;;;6.17;100.00;101207.78;5093492;28;20024;-35
2023/11/08 06:45:55;;;;;;;4.30;1.40;;;;;;;6.16;100.00;101208.00;5094041;28;20266;-35
2023/11/08 06:48:20;;;;;;;3.70;1.10;;;;;;;6.12;100.00;101199.47;5093780;28;20090;-35
2023/11/08 06:50:45;;;;;;;3.73;1.23;;;;;;;6.10;100.00;101200.69;5093811;28;20023;-35
2023/11/08 06:53:11;;;;;;;5.93;1.60;;;;;;;6.09;100.00;101199.03;5093660;28;20055;-35
2023/11/08 06:55:38;;;;;;;9.95;2.50;;;;;;;6.12;100.00;101201.34;5093938;28;20337;-35
2023/11/08 06:58:04;;;;;;;4.03;1.58;;;;;;;6.12;100.00;101204.03;5093463;28;20039;-35
2023/11/08 07:00:30;;;;;;;4.35;1.40;;;;;;;6.13;100.00;101206.50;5093643;28;20024;-35
2023/11/08 07:02:55;;;;;;;3.80;1.48;;;;;;;6.11;100.00;101205.88;5093271;28;20034;-35
2023/11/08 07:05:21;;;;;;;6.57;1.60;;;;;;;6.12;100.00;101210.22;5094496;28;20031;-35
2023/11/08 07:07:46;;;;;;;8.65;1.83;;;;;;;6.06;100.00;101199.44;5093512;28;20058;-35
2023/11/08 07:10:13;;;;;;;3.55;1.58;;;;;;;6.07;100.00;101215.34;5094386;28;20056;-35
2023/11/08 07:12:39;;;;;;;5.47;1.70;;;;;;;6.07;100.00;101206.47;5093113;28;20067;-35
2023/11/08 07:15:04;;;;;;;4.10;1.60;;;;;;;6.09;100.00;101207.09;5093528;28;20060;-35
2023/11/08 07:17:30;;;;;;;4.88;1.90;;;;;;;6.09;100.00;101204.41;5093391;28;20031;-35
2023/11/08 07:19:59;;;;;;;6.40;2.07;;;;;;;6.10;100.00;101204.22;5097784;28;20020;-35
2023/11/08 07:22:27;;;;;;;5.15;1.92;;;;;;;6.13;100.00;101205.69;5097264;28;20024;-35
2023/11/08 07:24:53;;;;;;;7.65;2.35;;;;;;;6.12;100.00;101204.84;5097098;28;20498;-35
2023/11/08 07:27:18;;;;;;;6.00;2.10;;;;;;;6.17;100.00;101204.28;5097386;28;20024;-35
2023/11/08 07:29:44;;;;;;;4.27;1.93;;;;;;;6.28;100.00;101211.78;5097514;28;20024;-35
2023/11/08 07:32:13;;;;;;;5.93;2.10;;;;;;;6.31;100.00;101211.41;5097892;28;20028;-35
2023/11/08 07:34:39;;;;;;;6.00;2.53;;;;;;;6.33;100.00;101197.78;5096986;28;20052;-35
2023/11/08 07:37:04;;;;;;;6.18;2.53;;;;;;;6.25;100.00;101182.66;5097448;28;20028;-35
2023/11/08 07:39:30;;;;;;;6.70;2.27;;;;;;;6.43;100.00;101198.28;5097254;28;20393;-35
2023/11/08 07:41:55;;;;;;;5.20;2.47;;;;;;;6.48;100.00;101211.97;5097714;28;20020;-35
2023/11/08 07:44:21;;;;;;;4.63;2.40;;;;;;;6.54;100.00;101204.97;5097169;28;20452;-35
2023/11/08 07:46:46;;;;;;;6.40;2.63;;;;;;;6.60;100.00;101205.03;5097937;28;20360;-35
2023/11/08 07:49:11;;;;;;;5.93;2.47;;;;;;;6.68;100.00;101204.03;5097348;28;20113;-35
2023/11/08 07:51:36;;;;;;;6.10;2.57;;;;;;;6.66;100.00;101190.81;5096688;28;20043;-35
2023/11/08 07:54:02;;;;;;;7.53;2.80;;;;;;;6.79;100.00;101208.06;5097242;28;20028;-35
2023/11/08 07:56:28;;;;;;;7.27;2.50;;;;;;;6.84;100.00;101209.13;5097059;28;20127;-35
2023/11/08 07:58:54;;;;;;;6.25;2.60;;;;;;;6.87;100.00;101208.72;5097146;28;20036;-35
2023/11/08 08:01:19;;;;;;;5.00;2.55;;;;;;;6.83;100.00;101212.84;5096526;28;20043;-35
2023/11/08 08:03:45;;;;;;;7.25;2.92;;;;;;;6.84;100.00;101206.44;5097289;28;20038;-35
2023/11/08 08:06:11;;;;;;;6.13;2.58;;;;;;;7.00;100.00;101221.41;5097306;28;20514;-35
2023/11/08 08:08:36;;;;;;;5.90;2.30;;;;;;;7.04;100.00;101217.31;5096964;28;20085;-35
2023/11/08 08:11:02;;;;;;;5.70;2.23;;;;;;;7.05;100.00;101213.56;5096167;28;20622;-35
2023/11/08 08:13:27;;;;;;;6.00;2.58;;;;;;;7.05;100.00;101215.44;5096317;28;20052;-35
2023/11/08 08:15:53;;;;;;;7.73;2.70;;;;;;;7.03;100.00;101209.41;5096573;28;20020;-35
2023/11/08 08:18:18;;;;;;;8.88;2.72;;;;;;;6.99;100.00;101205.47;5096336;28;20042;-35
2023/11/08 08:20:44;;;;;;;5.57;2.20;;;;;;;7.05;100.00;101224.34;5096973;28;20031;-35
2023/11/08 08:23:12;;;;;;;5.87;2.60;;;;;;;7.09;100.00;101216.72;5096935;28;20452;-35
2023/11/08 08:25:40;;;;;;;6.32;2.60;;;;;;;7.12;100.00;101232.44;5096837;28;20349;-35
2023/11/08 08:28:05;;;;;;;6.53;2.80;;;;;;;7.14;100.00;101231.22;5096222;28;20032;-35
2023/11/08 08:30:31;;;;;;;5.70;2.85;;;;;;;7.15;100.00;101227.50;5096054;28;20478;-35
2023/11/08 08:33:01;;;;;;;6.13;2.83;;;;;;;7.19;100.00;101220.69;5096170;28;20475;-35
2023/11/08 08:35:28;;;;;;;6.32;2.80;;;;;;;7.21;100.00;101225.84;5096108;28;20020;-35
2023/11/08 08:37:53;;;;;;;7.88;2.72;;;;;;;7.24;100.00;101222.78;5096815;28;20048;-35
2023/11/08 08:40:19;;;;;;;7.57;2.97;;;;;;;7.31;100.00;101222.81;5096119;28;20177;-35
2023/11/08 08:42:44;;;;;;;5.68;2.92;;;;;;;7.34;100.00;101220.53;5095666;28;20124;-35
2023/11/08 08:45:10;;;;;;;10.77;2.78;;;;;;;7.35;100.00;101216.00;5096253;28;20028;-35
2023/11/08 08:47:40;;;;;;;11.65;4.32;;;;;;;7.35;100.00;101214.13;5095836;28;20456;-35
2023/11/08 08:50:08;;;;;;;8.52;3.17;;;;;;;7.43;100.00;101210.44;5096714;28;20078;-35
2023/11/08 08:52:34;;;;;;;6.78;2.75;;;;;;;7.41;100.00;101210.63;5095829;28;20036;-35
2023/11/08 08:54:59;;;;;;;7.32;2.65;;;;;;;7.54;100.00;101219.78;5095458;28;20077;-35
2023/11/08 08:57:26;;;;;;;8.93;2.63;;;;;;;7.59;100.00;101211.94;5095968;28;20134;-35
2023/11/08 08:59:51;;;;;;;;;;;;;;;7.65;100.00;101211.13;5096435;28;20119;-35
2023/11/08 09:02:16;;;;;;;6.40;2.43;;;;;;;7.65;100.00;101211.94;5095908;28;19954;-35
2023/11/08 09:04:42;;;;;;;6.77;2.70;;;;;;;7.67;100.00;101215.28;5095538;28;20294;-35
2023/11/08 09:07:07;;;;;;;6.38;2.50;;;;;;;7.63;100.00;101203.25;5095766;28;20081;-35
2023/11/08 09:09:33;;;;;;;9.43;2.53;;;;;;;7.71;100.00;101205.78;5095054;28;20035;-35
2023/11/08 09:11:58;;;;;;;4.55;2.13;;;;;;;7.73;100.00;101213.66;5095429;28;20032;-35
2023/11/08 09:14:24;;;;;;;7.03;2.10;;;;;;;7.76;100.00;101213.25;5095425;28;20107;-35
2023/11/08 09:16:50;;;;;;;9.23;2.88;;;;;;;7.80;100.00;101209.09;5095551;28;20038;-35
2023/11/08 09:19:16;;;;;;;7.05;2.45;;;;;;;7.86;100.00;101207.47;5095767;28;20466;-35
2023/11/08 09:21:43;;;;;;;5.60;2.03;;;;;;;7.80;100.00;101192.94;5095791;28;20398;-35
2023/11/08 09:24:09;;;;;;;7.45;2.55;;;;;;;7.93;100.00;101219.06;5094863;28;20390;-35
2023/11/08 09:26:41;;;;;;;7.57;2.03;;;;;;;7.94;100.00;101208.09;5095412;28;20115;-35
2023/11/08 09:29:07;;;;;;;6.18;2.00;;;;;;;8.03;100.00;101211.41;5095859;28;20393;-35
2023/11/08 09:31:34;;;;;;;8.27;2.10;;;;;;;8.10;100.00;101206.03;5095037;28;20111;-35
2023/11/08 09:34:00;;;;;;;6.40;1.90;;;;;;;8.25;100.00;101195.91;5095254;28;20468;-35
2023/11/08 09:36:26;;;;;;;6.57;2.03;;;;;;;8.42;100.00;101216.03;5094875;28;20377;-35
2023/11/08 09:38:53;;;;;;;7.25;2.17;;;;;;;8.44;100.00;101203.19;5094807;28;20031;-35
2023/11/08 09:41:19;;;;;;;8.45;2.60;;;;;;;8.50;100.00;101207.75;5093975;28;20046;-35
2023/11/08 09:43:47;;;;;;;;;;;;;;;8.59;100.00;101216.47;5095168;28;20484;-35
2023/11/08 09:46:13;;;;;;;5.65;1.67;;;;;;;8.66;100.00;101206.47;5094943;28;19914;-35
2023/11/08 09:48:39;;;;;;;6.00;2.50;;;;;;;8.73;100.00;101206.47;5094688;28;20460;-35
2023/11/08 09:51:06;;;;;;;6.25;2.10;;;;;;;8.75;100.00;101207.91;5095048;28;20027;-35
2023/11/08 09:53:32;;;;;;;5.05;1.85;;;;;;;8.77;100.00;101202.31;5094256;28;20028;-35
2023/11/08 09:55:59;;;;;;;6.32;2.20;;;;;;;8.76;100.00;101208.75;5095105;28;20050;-35
2023/11/08 09:58:24;;;;;;;8.38;2.53;;;;;;;8.79;100.00;101210.22;5094126;28;20044;-35
2023/11/08 10:00:55;;;;;;;3.97;1.70;;;;;;;8.74;100.00;101191.97;5095060;28;20058;-35
2023/11/08 10:03:23;;;;;;;6.75;1.90;;;;;;;8.82;100.00;101209.78;5094769;28;20477;-35
2023/11/08 10:05:48;;;;;;;8.90;2.22;;;;;;;8.83;100.00;101209.53;5094931;28;20028;-35
2023/11/08 10:08:14;;;;;;;6.43;1.80;;;;;;;8.83;100.00;101206.03;5094645;28;20035;-35
2023/11/08 10:10:44;;;;;;;6.40;1.97;;;;;;;8.92;100.00;101208.28;5094403;28;20032;-35
2023/11/08 10:13:10;;;;;;;6.40;1.60;;;;;;;8.91;100.00;101195.03;5095118;28;20274;-35
2023/11/08 10:15:36;;;;;;;10.57;2.40;;;;;;;9.00;100.00;101189.19;5095072;28;20034;-35
2023/11/08 10:18:01;;;;;;;;;;;;;;;9.09;100.00;101183.56;5094570;28;20059;-35
2023/11/08 10:20:35;;;;;;;8.15;1.90;;;;;;;9.09;100.00;101187.09;5094753;28;19951;-35
2023/11/08 10:23:01;;;;;;;6.32;1.98;;;;;;;9.12;100.00;101172.34;5094144;28;20499;-35
2023/11/08 10:25:28;;;;;;;6.95;2.00;;;;;;;9.30;100.00;101175.16;5094642;28;20048;-35
2023/11/08 10:28:07;;;;;;;9.80;2.38;;;;;;;9.53;100.00;101171.94;5094597;28;20421;-35
2023/11/08 10:30:37;;;;;;;7.15;2.53;;;;;;;9.72;100.00;101171.00;5094022;28;20032;-35
2023/11/08 10:33:06;;;;;;;6.38;1.77;;;;;;;9.76;100.00;101160.59;5093658;28;20064;-35
2023/11/08 10:35:41;;;;;;;5.05;1.80;;;;;;;9.87;100.00;101170.72;5094262;28;20083;-35
2023/11/08 10:38:09;;;;;;;5.93;2.13;;;;;;;9.83;100.00;101163.25;5094416;28;20067;-35
2023/11/08 10:40:34;;;;;;;5.95;1.70;;;;;;;9.79;100.00;101162.84;5094723;28;20063;-35
2023/11/08 10:43:02;;;;;;;8.63;2.50;;;;;;;9.76;100.00;101149.78;5093833;28;20091;-35
2023/11/08 10:45:29;;;;;;;6.75;1.70;;;;;;;9.67;100.00;101145.72;5094622;28;20028;-35
2023/11/08 10:47:55;;;;;;;;;;;;;;;9.74;100.00;101151.88;5094214;28;20103;-35
2023/11/08 10:50:20;;;;;;;7.05;2.15;;;;;;;9.58;100.00;101141.59;5093783;28;19969;-35
2023/11/08 10:52:46;;;;;;;7.70;2.10;;;;;;;9.56;100.00;101131.00;5093787;28;20036;-35
2023/11/08 10:55:12;;;;;;;6.35;2.28;;;;;;;9.53;100.00;101124.19;5094349;28;20086;-35
2023/11/08 10:57:41;;;;;;;5.57;1.67;;;;;;;9.57;100.00;101129.97;5093898;28;20048;-35
2023/11/08 11:00:08;;;;;;;8.52;2.58;;;;;;;9.53;100.00;101123.34;5094150;28;20028;-35
2023/11/08 11:02:43;;;;;;;;;;;;;;;9.66;100.00;101125.13;5093910;28;20027;-35
2023/11/08 11:05:10;;;;;;;7.70;1.95;;;;;;;9.59;100.00;101114.38;5093504;28;20432;-35
2023/11/08 11:07:41;;;;;;;7.22;1.88;;;;;;;9.56;100.00;101128.31;5093491;28;20036;-35
2023/11/08 11:10:11;;;;;;;9.30;2.40;;;;;;;9.51;100.00;101118.16;5094071;28;20035;-35
2023/11/08 11:13:04;;;;;;;8.70;2.15;;;;;;;9.60;100.00;101134.09;5093741;28;20057;-35
2023/11/08 11:15:39;;;;;;;4.32;1.73;;;;;;;9.60;100.00;101118.72;5093391;28;20034;-35
2023/11/08 11:18:17;;;;;;;6.65;1.85;;;;;;;9.64;100.00;101116.44;5093065;28;20110;-35
2023/11/08 11:20:47;;;;;;;4.75;1.35;;;;;;;9.67;100.00;101119.53;5093442;28;20483;-35
2023/11/08 11:23:32;;;;;;;5.60;1.60;;;;;;;9.68;100.00;101110.38;5093105;28;20024;-35